Time;durP1;ratioP1;P1;durP2;ratioP2;P2;SDS_P1;SDS_P2;PMS_P1;PMS_P2;Temp;Humidity;BMP_temperature;BMP_pressure;BME280_temperature;BME280_humidity;BME280_pressure;Samples;Min_cycle;Max_cycle;Signal;HPM_P1;HPM_P2
2021/08/11 00:01:38;;;;;;;11.27;5.45;;;;;;;14.41;100.00;97986.44;5030974;28;20050;-81
2021/08/11 00:04:07;;;;;;;9.50;5.20;;;;;;;14.36;100.00;97983.91;5031827;28;20037;-81
2021/08/11 00:06:34;;;;;;;11.20;5.20;;;;;;;14.37;100.00;97984.72;5031334;28;20053;-80
2021/08/11 00:09:03;;;;;;;9.55;5.10;;;;;;;14.46;100.00;97988.97;5031953;28;20046;-79
2021/08/11 00:11:31;;;;;;;8.43;5.20;;;;;;;14.53;100.00;97991.19;5032366;28;20461;-80
2021/08/11 00:13:58;;;;;;;9.60;5.47;;;;;;;14.59;100.00;97990.63;5031570;28;20693;-80
2021/08/11 00:16:25;;;;;;;10.02;4.82;;;;;;;14.62;100.00;97989.97;5031653;28;20461;-81
2021/08/11 00:18:52;;;;;;;12.05;5.00;;;;;;;14.61;100.00;97991.09;5030190;28;20491;-81
2021/08/11 00:21:18;;;;;;;9.30;4.65;;;;;;;14.58;100.00;97989.03;5029959;28;20120;-82
2021/08/11 00:23:45;;;;;;;7.60;4.38;;;;;;;14.57;100.00;97982.00;5032165;28;20045;-81
2021/08/11 00:26:11;;;;;;;9.75;4.53;;;;;;;14.58;100.00;97989.03;5032544;28;20041;-78
2021/08/11 00:28:38;;;;;;;8.85;4.88;;;;;;;14.57;100.00;97986.66;5032667;28;20056;-82
2021/08/11 00:31:05;;;;;;;9.73;4.80;;;;;;;14.52;100.00;97978.66;5031223;28;20057;-80
2021/08/11 00:33:32;;;;;;;10.63;4.43;;;;;;;14.50;100.00;97987.19;5033771;28;20047;-79
2021/08/11 00:35:59;;;;;;;9.90;4.68;;;;;;;14.43;100.00;97988.84;5039101;28;20045;-80
2021/08/11 00:38:26;;;;;;;8.35;4.80;;;;;;;14.24;100.00;97964.75;5037446;28;20041;-80
2021/08/11 00:40:52;;;;;;;12.40;4.05;;;;;;;14.26;100.00;97985.06;5055311;28;20458;-79
2021/08/11 00:43:19;;;;;;;10.23;5.15;;;;;;;14.21;100.00;97976.28;5038649;28;20049;-79
2021/08/11 00:45:45;;;;;;;8.60;4.80;;;;;;;14.24;100.00;97984.59;5036507;28;20037;-79
2021/08/11 00:48:14;;;;;;;12.43;5.35;;;;;;;14.15;100.00;97991.22;5035949;28;20042;-82
2021/08/11 00:50:41;;;;;;;8.85;5.15;;;;;;;14.09;100.00;97981.66;5034292;28;20049;-78
2021/08/11 00:53:08;;;;;;;8.82;4.63;;;;;;;13.95;100.00;97979.16;5032582;28;20041;-79
2021/08/11 00:55:45;;;;;;;11.55;4.63;;;;;;;13.90;100.00;97990.22;5033632;28;20053;-81
2021/08/11 00:58:12;;;;;;;9.65;4.13;;;;;;;13.82;100.00;97991.06;5034923;28;20236;-81
2021/08/11 01:00:44;;;;;;;9.27;4.80;;;;;;;13.81;100.00;97984.00;5035916;28;20107;-81
2021/08/11 01:03:14;;;;;;;9.02;4.38;;;;;;;13.76;100.00;97978.75;5034227;28;20422;-81
2021/08/11 01:05:41;;;;;;;11.00;4.78;;;;;;;13.75;100.00;97985.34;5034772;28;20033;-80
2021/08/11 01:08:10;;;;;;;9.90;4.72;;;;;;;13.75;100.00;97993.50;5036498;28;20057;-80
2021/08/11 01:10:37;;;;;;;8.02;4.53;;;;;;;13.67;100.00;97986.16;5018829;28;20076;-80
2021/08/11 01:13:04;;;;;;;12.32;4.65;;;;;;;13.68;100.00;97996.72;5035897;28;20053;-80
2021/08/11 01:15:30;;;;;;;7.70;4.22;;;;;;;13.61;100.00;98001.88;5035531;28;20037;-80
2021/08/11 01:17:57;;;;;;;12.05;4.40;;;;;;;13.59;100.00;98004.13;5035221;28;20053;-81
2021/08/11 01:20:25;;;;;;;12.43;4.90;;;;;;;13.56;100.00;98004.75;5035338;28;20045;-82
2021/08/11 01:23:03;;;;;;;8.00;4.50;;;;;;;13.56;100.00;98021.09;5033982;28;20152;-80
2021/08/11 01:25:38;;;;;;;8.63;4.43;;;;;;;13.41;100.00;98018.88;5034898;28;20052;-79
2021/08/11 01:28:52;;;;;;;17.40;5.60;;;;;;;13.38;100.00;98014.09;5035798;28;20060;-81
2021/08/11 01:31:27;;;;;;;15.43;5.25;;;;;;;13.18;100.00;98022.94;5031468;28;20470;-79
2021/08/11 01:34:25;;;;;;;11.52;5.05;;;;;;;13.14;100.00;98016.53;5034518;28;20049;-80
2021/08/11 01:36:55;;;;;;;12.02;5.70;;;;;;;13.19;100.00;98012.84;5034988;28;20048;-82
2021/08/11 01:39:43;;;;;;;9.07;4.38;;;;;;;13.09;100.00;98017.50;5034457;28;20487;-79
2021/08/11 01:42:28;;;;;;;12.82;5.05;;;;;;;13.01;100.00;98023.69;5034993;28;20041;-80
2021/08/11 01:45:15;;;;;;;17.75;4.93;;;;;;;13.03;100.00;98028.84;5049624;28;20038;-81
2021/08/11 01:47:49;;;;;;;15.93;5.05;;;;;;;12.94;100.00;98025.31;5033560;28;20149;-82
2021/08/11 01:50:19;;;;;;;15.18;5.03;;;;;;;12.93;100.00;98024.50;5034668;28;20079;-82
2021/08/11 01:52:47;;;;;;;18.17;5.70;;;;;;;13.05;100.00;98015.72;5033486;28;20068;-82
2021/08/11 01:55:14;;;;;;;19.13;5.85;;;;;;;13.13;100.00;98019.56;5034578;28;20037;-82
2021/08/11 01:57:52;;;;;;;20.50;5.30;;;;;;;13.20;100.00;98019.88;5034825;28;20053;-82
2021/08/11 02:00:22;;;;;;;17.73;5.47;;;;;;;13.19;100.00;98012.84;5034770;28;20045;-82
2021/08/11 02:02:50;;;;;;;18.08;5.57;;;;;;;13.13;100.00;98020.38;5042923;28;20071;-81
2021/08/11 02:05:21;;;;;;;16.50;5.85;;;;;;;13.10;100.00;98023.75;5027454;28;20121;-81
2021/08/11 02:07:48;;;;;;;15.82;5.50;;;;;;;13.06;100.00;98014.56;5042982;28;20045;-82
2021/08/11 02:10:16;;;;;;;19.15;5.60;;;;;;;13.00;100.00;98022.13;5035255;28;20083;-82
2021/08/11 02:12:43;;;;;;;20.88;5.82;;;;;;;13.11;100.00;98014.44;5034039;28;20762;-79
2021/08/11 02:15:11;;;;;;;15.45;5.45;;;;;;;13.13;100.00;98022.28;5035259;28;20392;-81
2021/08/11 02:17:41;;;;;;;12.32;5.45;;;;;;;13.13;100.00;98025.81;5035000;28;20037;-81
2021/08/11 02:20:10;;;;;;;17.27;5.20;;;;;;;13.04;100.00;98039.38;5033816;28;20503;-81
2021/08/11 02:22:37;;;;;;;14.68;5.25;;;;;;;13.04;100.00;98039.38;5017378;28;20427;-78
2021/08/11 02:25:09;;;;;;;12.77;5.85;;;;;;;13.09;100.00;98035.72;5033436;28;20551;-81
2021/08/11 02:28:03;;;;;;;18.98;5.18;;;;;;;13.10;100.00;98029.97;5032756;28;20045;-81
2021/08/11 02:30:37;;;;;;;13.55;4.57;;;;;;;13.16;100.00;98036.06;5049357;28;20045;-82
2021/08/11 02:33:23;;;;;;;14.82;4.63;;;;;;;13.18;100.00;98025.66;5032524;28;20044;-82
2021/08/11 02:35:56;;;;;;;14.18;4.95;;;;;;;13.16;100.00;98044.22;5032412;28;20049;-80
2021/08/11 02:38:39;;;;;;;10.07;4.90;;;;;;;13.24;100.00;98037.16;5048733;28;20045;-81
2021/08/11 02:41:42;;;;;;;16.38;5.22;;;;;;;13.25;100.00;98036.81;5047038;28;20391;-81
2021/08/11 02:44:16;;;;;;;13.50;4.60;;;;;;;13.26;100.00;98033.00;5018545;28;20068;-80
2021/08/11 02:46:44;;;;;;;17.33;5.70;;;;;;;13.35;100.00;98036.50;5029776;28;20057;-80
2021/08/11 02:49:19;;;;;;;16.38;5.43;;;;;;;13.34;100.00;98034.09;5046308;28;20057;-81
2021/08/11 02:51:48;;;;;;;15.95;5.40;;;;;;;13.38;100.00;98038.56;5030258;28;20037;-80
2021/08/11 02:54:18;;;;;;;16.00;5.78;;;;;;;13.40;100.00;98043.66;5030893;28;20525;-80
2021/08/11 02:56:46;;;;;;;16.00;5.28;;;;;;;13.45;100.00;98049.75;5031584;28;20249;-82
2021/08/11 02:59:14;;;;;;;15.07;4.65;;;;;;;13.41;100.00;98046.09;5013196;28;20065;-80
2021/08/11 03:01:41;;;;;;;11.73;5.00;;;;;;;13.45;100.00;98049.75;5030324;28;20045;-79
2021/08/11 03:04:12;;;;;;;16.85;5.20;;;;;;;13.50;100.00;98046.84;5031502;28;20048;-81
2021/08/11 03:06:40;;;;;;;11.63;5.05;;;;;;;13.40;100.00;98038.22;5030244;28;20057;-79
2021/08/11 03:09:08;;;;;;;15.82;4.75;;;;;;;13.44;100.00;98042.72;5021072;28;20717;-81
2021/08/11 03:11:36;;;;;;;14.15;4.75;;;;;;;13.44;100.00;98039.19;5012232;28;20042;-79
2021/08/11 03:14:04;;;;;;;14.75;4.93;;;;;;;13.44;100.00;98045.44;5022812;28;20391;-80
2021/08/11 03:16:30;;;;;;;15.05;4.90;;;;;;;13.39;100.00;98044.81;5020219;28;20048;-80
2021/08/11 03:18:57;;;;;;;12.38;5.40;;;;;;;13.33;100.00;98038.75;5022741;28;20128;-80
2021/08/11 03:21:24;;;;;;;16.10;5.45;;;;;;;13.32;100.00;98047.19;5020107;28;20050;-81
2021/08/11 03:23:50;;;;;;;14.25;5.38;;;;;;;13.24;100.00;98043.38;5020776;28;20515;-79
2021/08/11 03:26:17;;;;;;;11.27;5.32;;;;;;;13.24;100.00;98048.03;5022856;28;20068;-80
2021/08/11 03:28:44;;;;;;;12.68;5.00;;;;;;;13.20;100.00;98050.59;5043893;28;20045;-80
2021/08/11 03:31:11;;;;;;;12.88;5.13;;;;;;;13.21;100.00;98051.41;5024453;28;20061;-78
2021/08/11 03:33:37;;;;;;;13.98;5.18;;;;;;;13.23;100.00;98055.38;5019621;28;20499;-80
2021/08/11 03:36:05;;;;;;;25.40;5.53;;;;;;;13.16;100.00;98049.66;5013631;28;20551;-80
2021/08/11 03:38:34;;;;;;;12.73;4.88;;;;;;;13.05;100.00;98042.91;5013473;28;20050;-81
2021/08/11 03:41:00;;;;;;;15.65;5.13;;;;;;;13.04;100.00;98055.69;5013114;28;20046;-81
2021/08/11 03:43:27;;;;;;;17.20;5.75;;;;;;;13.04;100.00;98052.16;5016293;28;20056;-81
2021/08/11 03:45:53;;;;;;;24.67;6.72;;;;;;;13.09;100.00;98049.31;5032201;28;20096;-81
2021/08/11 03:48:20;;;;;;;19.48;7.00;;;;;;;13.09;100.00;98060.19;5047649;28;20057;-80
2021/08/11 03:50:46;;;;;;;23.17;6.82;;;;;;;13.08;100.00;98069.47;5031338;28;20064;-80
2021/08/11 03:53:13;;;;;;;14.38;6.15;;;;;;;13.04;100.00;98058.41;5047948;28;20470;-80
2021/08/11 03:55:40;;;;;;;18.70;6.15;;;;;;;13.07;100.00;98059.72;5059428;23;20057;-80
2021/08/11 03:58:06;;;;;;;28.77;6.07;;;;;;;13.15;100.00;98066.25;5053296;28;20102;-80
2021/08/11 04:00:33;;;;;;;26.15;5.80;;;;;;;13.21;100.00;98068.50;5046037;28;20079;-81
2021/08/11 04:03:00;;;;;;;22.30;5.30;;;;;;;13.20;100.00;98066.91;5018622;28;20045;-81
2021/08/11 04:05:27;;;;;;;18.42;5.75;;;;;;;13.31;100.00;98073.63;5034855;28;20374;-79
2021/08/11 04:07:53;;;;;;;19.42;5.72;;;;;;;13.35;100.00;98060.97;5034454;28;20111;-81
2021/08/11 04:10:20;;;;;;;15.57;5.35;;;;;;;13.40;100.00;98073.59;5019564;28;20056;-80
2021/08/11 04:12:47;;;;;;;20.90;5.60;;;;;;;13.45;100.00;98085.09;5023841;28;20049;-80
2021/08/11 04:15:14;;;;;;;29.10;6.03;;;;;;;13.44;100.00;98078.09;5041858;28;20172;-82
2021/08/11 04:17:41;;;;;;;23.65;6.25;;;;;;;13.48;100.00;98086.38;5041294;28;20041;-82
2021/08/11 04:20:08;;;;;;;18.52;5.47;;;;;;;13.59;100.00;98091.19;5039479;28;20046;-81
2021/08/11 04:22:37;;;;;;;18.98;6.00;;;;;;;13.66;100.00;98093.38;5038463;28;20050;-80
2021/08/11 04:25:04;;;;;;;17.00;5.57;;;;;;;13.63;100.00;98089.41;5039902;28;20038;-78
2021/08/11 04:27:30;;;;;;;16.15;5.53;;;;;;;13.66;100.00;98091.47;5040284;28;20056;-78
2021/08/11 04:29:57;;;;;;;18.55;6.47;;;;;;;13.77;100.00;98085.69;5038897;28;20056;-80
2021/08/11 04:32:24;;;;;;;15.52;6.00;;;;;;;13.90;100.00;98090.13;5042184;28;20056;-79
2021/08/11 04:34:50;;;;;;;17.42;6.32;;;;;;;14.02;100.00;98090.25;5041494;28;20041;-83
2021/08/11 04:37:17;;;;;;;13.02;5.78;;;;;;;14.09;100.00;98094.06;5032363;28;20050;-79
2021/08/11 04:39:45;;;;;;;19.27;5.70;;;;;;;14.18;100.00;98085.88;5039619;28;20049;-79
2021/08/11 04:42:11;;;;;;;15.60;5.72;;;;;;;14.26;100.00;98088.56;5042704;28;20049;-80
2021/08/11 04:44:38;;;;;;;20.83;5.60;;;;;;;14.31;100.00;98079.44;5042864;28;20045;-79
2021/08/11 04:47:04;;;;;;;11.95;5.30;;;;;;;14.35;100.00;98075.72;5040594;28;20113;-79
2021/08/11 04:49:31;;;;;;;15.82;4.93;;;;;;;14.34;100.00;98073.31;5042671;28;20087;-83
2021/08/11 04:51:57;;;;;;;10.07;4.65;;;;;;;14.42;100.00;98088.84;5024792;28;20195;-80
2021/08/11 04:54:27;;;;;;;13.18;4.72;;;;;;;14.55;100.00;98089.72;5044782;28;20111;-79
2021/08/11 04:56:53;;;;;;;11.82;5.30;;;;;;;14.56;100.00;98086.66;5025785;28;20045;-82
2021/08/11 04:59:20;;;;;;;10.95;4.55;;;;;;;14.64;100.00;98093.19;5042921;28;20095;-81
2021/08/11 05:01:46;;;;;;;8.82;4.75;;;;;;;14.62;100.00;98079.91;5043821;28;20049;-83
2021/08/11 05:04:13;;;;;;;11.23;4.30;;;;;;;14.69;100.00;98085.63;5043468;28;20046;-84
2021/08/11 05:06:40;;;;;;;7.90;4.28;;;;;;;14.72;100.00;98089.59;5023619;28;20052;-83
2021/08/11 05:09:06;;;;;;;8.80;4.28;;;;;;;14.73;100.00;98083.03;5037421;28;20041;-83
2021/08/11 05:11:33;;;;;;;8.35;4.82;;;;;;;14.70;100.00;98083.69;5037519;28;20087;-84
2021/08/11 05:13:59;;;;;;;8.73;4.57;;;;;;;14.68;100.00;98092.22;5037105;28;20543;-83
2021/08/11 05:16:26;;;;;;;10.00;4.18;;;;;;;14.64;100.00;98090.47;5019162;28;20045;-83
2021/08/11 05:18:54;;;;;;;9.35;4.70;;;;;;;14.68;100.00;98094.94;5002844;28;20045;-83
2021/08/11 05:21:22;;;;;;;14.32;4.65;;;;;;;14.76;100.00;98098.75;5034891;28;20050;-84
2021/08/11 05:23:51;;;;;;;6.90;4.55;;;;;;;14.79;100.00;98098.06;5040378;28;20041;-84
2021/08/11 05:26:18;;;;;;;8.07;4.20;;;;;;;14.90;100.00;98099.28;5048803;28;20041;-83
2021/08/11 05:28:48;;;;;;;11.20;4.65;;;;;;;14.98;100.00;98106.59;5035930;28;20641;-82
2021/08/11 05:31:16;;;;;;;8.63;4.28;;;;;;;15.15;100.00;98102.97;5033942;28;20049;-85
2021/08/11 05:33:43;;;;;;;6.13;4.00;;;;;;;15.31;100.00;98096.53;5040460;28;20076;-82
2021/08/11 05:36:09;;;;;;;7.57;4.13;;;;;;;15.57;100.00;98099.06;5043877;28;20514;-82
2021/08/11 05:38:37;;;;;;;6.82;3.83;;;;;;;15.73;100.00;98091.84;5048134;28;20056;-82
2021/08/11 05:41:04;;;;;;;7.75;3.60;;;;;;;15.85;100.00;98091.88;5035844;28;20059;-83
2021/08/11 05:43:32;;;;;;;7.90;3.65;;;;;;;16.02;100.00;98088.97;5037317;28;20105;-82
2021/08/11 05:45:59;;;;;;;7.38;3.50;;;;;;;16.11;100.00;98092.38;5019108;28;20049;-81
2021/08/11 05:48:27;;;;;;;9.43;3.78;;;;;;;16.20;100.00;98095.81;5054546;28;20418;-83
2021/08/11 05:50:54;;;;;;;7.03;3.50;;;;;;;16.21;100.00;98102.88;5035442;28;20049;-81
2021/08/11 05:53:22;;;;;;;7.07;3.33;;;;;;;16.23;100.00;98092.38;5052668;28;20434;-82
2021/08/11 05:55:52;;;;;;;9.77;3.55;;;;;;;16.30;100.00;98110.97;5053735;28;20056;-82
2021/08/11 05:58:18;;;;;;;6.70;3.30;;;;;;;16.26;100.00;98110.03;5035490;28;20044;-81
2021/08/11 06:00:45;;;;;;;8.15;3.10;;;;;;;16.41;100.00;98114.84;5053290;28;20041;-83
2021/08/11 06:03:12;;;;;;;6.55;3.53;;;;;;;16.47;100.00;98115.41;5053110;28;20399;-82
2021/08/11 06:05:39;;;;;;;5.82;3.10;;;;;;;16.54;100.00;98121.16;5053799;28;20045;-83
2021/08/11 06:08:05;;;;;;;7.30;3.17;;;;;;;16.53;100.00;98130.47;5036555;28;20052;-83
2021/08/11 06:10:33;;;;;;;6.95;3.50;;;;;;;16.62;100.00;98131.94;5036006;28;20105;-81
2021/08/11 06:13:00;;;;;;;9.00;3.42;;;;;;;16.60;100.00;98126.03;5036289;28;20049;-82
2021/08/11 06:15:27;;;;;;;7.93;3.03;;;;;;;16.61;100.00;98116.69;5053576;28;20537;-83
2021/08/11 06:17:54;;;;;;;9.95;3.33;;;;;;;16.58;100.00;98136.53;5032061;28;20077;-81
2021/08/11 06:20:22;;;;;;;5.63;2.95;;;;;;;16.55;100.00;98131.72;5015323;28;20798;-83
2021/08/11 06:22:52;;;;;;;8.30;3.38;;;;;;;16.63;100.00;98133.56;5033013;28;20060;-83
2021/08/11 06:25:20;;;;;;;5.35;2.85;;;;;;;16.69;100.00;98128.66;5051509;28;20289;-82
2021/08/11 06:27:46;;;;;;;6.13;2.83;;;;;;;16.88;100.00;98128.84;5053164;28;20044;-82
2021/08/11 06:30:13;;;;;;;9.93;3.50;;;;;;;16.94;100.00;98129.44;5034565;28;20053;-81
2021/08/11 06:32:42;;;;;;;5.28;3.05;;;;;;;16.81;100.00;98128.66;5053431;28;20449;-82
2021/08/11 06:35:09;;;;;;;9.23;3.03;;;;;;;16.90;100.00;98128.53;5053851;28;20059;-80
2021/08/11 06:37:50;;;;;;;8.43;3.22;;;;;;;16.89;100.00;98132.41;5035113;28;20055;-81
2021/08/11 06:40:18;;;;;;;5.60;2.90;;;;;;;16.92;100.00;98138.00;5053856;28;20238;-81
2021/08/11 06:42:45;;;;;;;6.22;3.88;;;;;;;17.16;100.00;98139.91;5052993;28;20055;-80
2021/08/11 06:45:13;;;;;;;5.80;3.10;;;;;;;17.20;100.00;98147.06;5018420;28;20057;-80
2021/08/11 06:47:40;;;;;;;6.07;3.20;;;;;;;17.20;100.00;98143.53;5032912;28;20049;-82
2021/08/11 06:50:10;;;;;;;5.82;3.25;;;;;;;17.30;100.00;98137.56;5015914;28;20079;-82
2021/08/11 06:52:37;;;;;;;4.90;3.05;;;;;;;17.49;100.00;98134.22;5015642;28;20061;-81
2021/08/11 06:55:07;;;;;;;5.38;3.00;;;;;;;17.58;100.00;98135.69;5046491;28;20051;-82
2021/08/11 06:57:34;;;;;;;7.78;3.33;;;;;;;17.55;100.00;98139.09;5054144;28;20056;-81
2021/08/11 07:00:02;;;;;;;6.15;2.92;;;;;;;17.71;100.00;98139.97;5053822;28;20154;-81
2021/08/11 07:02:30;;;;;;;6.20;3.13;;;;;;;17.88;100.00;98130.66;5045464;28;20056;-82
2021/08/11 07:04:57;;;;;;;7.03;3.58;;;;;;;18.15;100.00;98139.97;5035866;28;20071;-82
2021/08/11 07:07:23;;;;;;;6.03;3.30;;;;;;;18.12;100.00;98143.44;5052814;28;20080;-81
2021/08/11 07:09:51;;;;;;;6.28;2.80;;;;;;;18.17;100.00;98138.47;5034191;28;20078;-81
2021/08/11 07:12:18;;;;;;;4.88;2.85;;;;;;;18.21;100.00;98139.38;5052015;28;20049;-81
2021/08/11 07:14:45;;;;;;;8.75;3.45;;;;;;;18.21;100.00;98135.81;5022117;28;20061;-82
2021/08/11 07:17:12;;;;;;;5.63;3.03;;;;;;;18.23;100.00;98134.31;5031664;28;20041;-81
2021/08/11 07:19:40;;;;;;;5.18;2.95;;;;;;;18.20;100.00;98132.28;5014197;28;20119;-81
2021/08/11 07:22:08;;;;;;;5.80;2.97;;;;;;;18.41;100.00;98137.50;5031012;28;20076;-81
2021/08/11 07:24:35;;;;;;;4.65;3.08;;;;;;;18.43;100.00;98136.00;5040903;28;20049;-81
2021/08/11 07:27:04;;;;;;;7.97;3.20;;;;;;;18.54;100.00;98145.34;5056631;28;20045;-82
2021/08/11 07:29:31;;;;;;;5.45;3.22;;;;;;;18.74;100.00;98146.19;5051112;28;20052;-81
2021/08/11 07:31:58;;;;;;;6.07;3.22;;;;;;;18.89;100.00;98141.88;5048513;28;20045;-81
2021/08/11 07:34:24;;;;;;;4.90;2.92;;;;;;;19.12;100.00;98140.03;5033003;28;20053;-81
2021/08/11 07:36:51;;;;;;;7.57;3.38;;;;;;;18.92;100.00;98141.94;5034311;28;20056;-82
2021/08/11 07:39:18;;;;;;;7.68;3.42;;;;;;;18.81;100.00;98138.16;5035356;28;20056;-82
2021/08/11 07:41:44;;;;;;;10.15;3.45;;;;;;;18.89;100.00;98144.59;5067922;28;20124;-83
2021/08/11 07:44:11;;;;;;;6.35;3.30;;;;;;;18.97;100.00;98155.38;5052220;28;20049;-82
2021/08/11 07:46:40;;;;;;;5.18;3.08;;;;;;;18.83;100.00;98148.75;5074489;28;20055;-82
2021/08/11 07:49:08;;;;;;;9.73;3.17;;;;;;;18.97;100.00;98149.13;5074494;28;20035;-82
2021/08/11 07:51:34;;;;;;;6.07;3.50;;;;;;;18.97;100.00;98144.41;5054846;28;20045;-82
2021/08/11 07:54:01;;;;;;;9.40;3.38;;;;;;;19.08;100.00;98150.94;5035258;28;20491;-80
2021/08/11 07:56:27;;;;;;;6.10;3.42;;;;;;;19.10;100.00;98151.38;5054400;28;20049;-81
2021/08/11 07:58:57;;;;;;;8.23;3.42;;;;;;;19.12;100.00;98156.50;5062432;28;20309;-80
2021/08/11 08:01:24;;;;;;;5.82;3.38;;;;;;;19.05;100.00;98148.91;5056895;28;20049;-80
2021/08/11 08:03:50;;;;;;;5.50;3.00;;;;;;;19.04;100.00;98152.81;5039911;28;20045;-80
2021/08/11 08:06:17;;;;;;;5.22;3.08;;;;;;;18.97;100.00;98146.38;5041739;28;20048;-81
2021/08/11 08:08:44;;;;;;;6.20;3.28;;;;;;;19.03;100.00;98153.16;5058387;28;20041;-82
2021/08/11 08:11:11;;;;;;;7.50;3.30;;;;;;;18.83;100.00;98159.75;5054750;28;20423;-82
2021/08/11 08:13:38;;;;;;;7.25;3.70;;;;;;;18.84;100.00;98161.34;5055435;28;20051;-82
2021/08/11 08:16:07;;;;;;;5.78;3.70;;;;;;;19.05;100.00;98153.59;5055964;28;20052;-82
2021/08/11 08:18:34;;;;;;;6.95;3.20;;;;;;;19.34;100.00;98146.78;5036167;28;20049;-82
2021/08/11 08:21:03;;;;;;;5.65;3.30;;;;;;;19.41;100.00;98153.25;5039042;28;20037;-83
2021/08/11 08:23:29;;;;;;;7.05;3.35;;;;;;;19.60;100.00;98152.47;5055487;28;20045;-82
2021/08/11 08:25:56;;;;;;;6.78;3.30;;;;;;;19.70;100.00;98149.16;5055205;28;20049;-82
2021/08/11 08:28:23;;;;;;;4.07;3.08;;;;;;;19.70;100.00;98155.44;5052925;28;20064;-83
2021/08/11 08:30:50;;;;;;;6.57;3.80;;;;;;;19.37;100.00;98144.16;5036082;28;20048;-82
2021/08/11 08:33:17;;;;;;;8.70;3.55;;;;;;;19.72;100.00;98153.13;5037086;28;20061;-83
2021/08/11 08:35:46;;;;;;;6.18;3.50;;;;;;;19.66;100.00;98153.78;5053225;28;20063;-82
2021/08/11 08:38:13;;;;;;;7.63;3.67;;;;;;;19.58;100.00;98152.03;5052550;28;20067;-81
2021/08/11 08:40:48;;;;;;;9.95;2.97;;;;;;;19.89;100.00;98160.16;5036743;28;20051;-81
2021/08/11 08:43:18;;;;;;;5.03;3.50;;;;;;;20.24;100.00;98155.34;5036107;28;20049;-81
2021/08/11 08:45:48;;;;;;;4.85;3.10;;;;;;;20.28;100.00;98147.16;5055780;28;20044;-81
2021/08/11 08:48:15;;;;;;;5.03;3.30;;;;;;;20.57;100.00;98148.47;5037257;28;20052;-81
2021/08/11 08:50:42;;;;;;;5.32;3.15;;;;;;;20.83;100.00;98152.00;5034817;28;20395;-78
2021/08/11 08:53:09;;;;;;;6.05;3.22;;;;;;;20.87;100.00;98155.63;5034937;28;20045;-80
2021/08/11 08:55:37;;;;;;;7.38;3.38;;;;;;;20.65;100.00;98150.16;5051433;28;20041;-81
2021/08/11 08:58:04;;;;;;;5.65;3.15;;;;;;;20.13;100.00;98157.06;5053088;28;20041;-82
2021/08/11 09:00:32;;;;;;;9.63;3.60;;;;;;;19.96;100.00;98156.72;5053278;28;20048;-80
2021/08/11 09:02:59;;;;;;;7.18;3.30;;;;;;;20.15;100.00;98159.47;5018886;28;20045;-80
2021/08/11 09:05:26;;;;;;;7.97;3.50;;;;;;;20.56;100.00;98155.91;5053288;28;20503;-81
2021/08/11 09:07:53;;;;;;;8.35;3.00;;;;;;;20.55;100.00;98159.81;5036827;28;20060;-81
2021/08/11 09:23:04;;;;;;;5.78;2.90;;;;;;;20.93;100.00;98153.38;5059146;28;20037;-77
2021/08/11 09:25:31;;;;;;;5.20;3.20;;;;;;;20.83;100.00;98140.22;5042515;28;20051;-78
2021/08/11 09:27:58;;;;;;;8.30;3.30;;;;;;;21.05;100.00;98150.41;5050429;28;20040;-78
2021/08/11 09:30:26;;;;;;;6.43;3.50;;;;;;;20.63;100.00;98145.00;5073645;28;20056;-78
2021/08/11 09:33:05;;;;;;;7.38;3.15;;;;;;;21.26;100.00;98169.22;5074939;28;20051;-78
2021/08/11 09:35:40;;;;;;;5.72;3.60;;;;;;;20.75;100.00;98172.31;5083329;23;20055;-81
2021/08/11 09:38:11;;;;;;;10.35;3.90;;;;;;;21.30;100.00;98178.31;5050364;28;20055;-82
2021/08/11 09:40:40;;;;;;;6.60;3.90;;;;;;;21.39;100.00;98167.84;5076453;28;20049;-83
2021/08/11 09:43:13;;;;;;;8.05;4.35;;;;;;;21.44;100.00;98176.56;5070314;28;20062;-82
2021/08/11 09:45:52;;;;;;;7.25;3.92;;;;;;;21.10;100.00;98181.19;5075070;28;20044;-82
2021/08/11 09:48:42;;;;;;;5.63;3.70;;;;;;;21.52;100.00;98181.03;5055240;28;20558;-79
2021/08/11 09:51:10;;;;;;;9.13;4.13;;;;;;;21.84;100.00;98181.41;5040033;28;20040;-81
2021/08/11 09:53:38;;;;;;;12.60;4.60;;;;;;;21.59;100.00;98170.09;5068836;28;20105;-80
2021/08/11 09:56:12;;;;;;;6.57;3.88;;;;;;;22.15;100.00;98167.22;5089759;23;20147;-81
2021/08/11 09:58:45;;;;;;;6.63;3.85;;;;;;;21.77;100.00;98181.31;5063453;28;20059;-80
2021/08/11 10:01:12;;;;;;;6.15;3.88;;;;;;;21.74;100.00;98179.31;5064557;28;20045;-80
2021/08/11 10:04:00;;;;;;;10.07;3.75;;;;;;;21.73;100.00;98166.72;5080165;28;20106;-80
2021/08/11 10:06:39;;;;;;;7.32;3.90;;;;;;;21.61;100.00;98183.47;5084363;28;20398;-80
2021/08/11 10:09:26;;;;;;;6.80;3.63;;;;;;;21.69;100.00;98177.69;5077734;28;20091;-81
2021/08/11 10:11:57;;;;;;;5.82;3.60;;;;;;;22.53;100.00;98185.34;5063106;28;20045;-81
2021/08/11 10:14:26;;;;;;;9.02;3.50;;;;;;;23.06;100.00;98185.03;5059667;28;20040;-80
2021/08/11 10:16:58;;;;;;;8.82;3.95;;;;;;;23.85;100.00;98179.59;5063211;28;20102;-81
2021/08/11 10:19:28;;;;;;;6.55;3.00;;;;;;;25.13;100.00;98176.72;5060564;28;20064;-79
2021/08/11 10:22:02;;;;;;;5.45;3.03;;;;;;;25.77;100.00;98182.16;5058511;28;20102;-82
2021/08/11 10:24:31;;;;;;;6.50;2.85;;;;;;;26.47;100.00;98172.72;5079657;28;20044;-81
2021/08/11 10:26:58;;;;;;;5.03;2.60;;;;;;;26.74;100.00;98164.59;5078289;28;20090;-80
2021/08/11 10:29:25;;;;;;;4.40;2.90;;;;;;;25.82;100.00;98168.66;5058941;28;20053;-81
2021/08/11 10:31:54;;;;;;;3.53;2.47;;;;;;;25.64;100.00;98167.94;5041111;28;20549;-80
2021/08/11 10:34:23;;;;;;;6.60;2.53;;;;;;;26.50;100.00;98183.81;5075614;28;20077;-80
2021/08/11 10:36:49;;;;;;;5.60;2.40;;;;;;;24.59;100.00;98177.88;5081972;28;20042;-81
2021/08/11 10:39:17;;;;;;;3.90;2.60;;;;;;;23.52;100.00;98192.50;5083085;28;20056;-80
2021/08/11 10:41:45;;;;;;;4.93;2.40;;;;;;;23.18;100.00;98188.28;5084470;28;20052;-80
2021/08/11 10:44:16;;;;;;;3.83;2.58;;;;;;;22.22;100.00;98196.88;5085660;28;20139;-79
2021/08/11 10:46:45;;;;;;;8.25;3.25;;;;;;;21.68;100.00;98200.09;5080184;28;20087;-80
2021/08/11 10:49:17;;;;;;;7.45;2.92;;;;;;;23.88;100.00;98184.38;5085535;28;20044;-79
2021/08/11 10:51:47;;;;;;;4.95;3.08;;;;;;;26.05;100.00;98181.22;5083268;28;20045;-80
2021/08/11 10:54:15;;;;;;;5.65;2.65;;;;;;;27.20;95.59;98174.13;5083026;28;20055;-82
2021/08/11 10:56:51;;;;;;;3.83;2.80;;;;;;;26.23;100.00;98166.09;5065814;28;20059;-79
2021/08/11 10:59:28;;;;;;;3.90;2.38;;;;;;;24.34;100.00;98167.97;5085177;28;20048;-81
2021/08/11 11:01:59;;;;;;;5.13;2.10;;;;;;;23.09;100.00;98173.22;5085020;28;20136;-80
2021/08/11 11:04:40;;;;;;;4.32;2.60;;;;;;;22.98;100.00;98175.91;5085948;28;20083;-80
2021/08/11 11:07:10;;;;;;;5.18;2.20;;;;;;;24.60;100.00;98173.91;5085208;28;20471;-81
2021/08/11 11:09:38;;;;;;;4.00;2.63;;;;;;;24.44;100.00;98167.19;5100543;28;20056;-80
2021/08/11 11:12:34;;;;;;;3.53;2.40;;;;;;;25.96;100.00;98167.81;5083278;28;20049;-81
2021/08/11 11:15:01;;;;;;;8.23;2.60;;;;;;;26.88;98.13;98173.63;5065237;28;20055;-82
2021/08/11 11:17:31;;;;;;;6.38;2.40;;;;;;;27.64;91.58;98173.28;5096899;28;20205;-80
2021/08/11 11:20:04;;;;;;;6.68;2.80;;;;;;;28.43;76.89;98171.13;5081295;28;20048;-80
2021/08/11 11:22:41;;;;;;;4.90;2.85;;;;;;;29.22;64.01;98169.50;5075032;28;20044;-81
2021/08/11 11:25:15;;;;;;;4.40;2.63;;;;;;;28.09;59.48;98170.41;5044412;28;20338;-80
2021/08/11 11:27:42;;;;;;;4.47;2.50;;;;;;;28.10;64.66;98178.34;5063407;28;20105;-82
2021/08/11 11:30:12;;;;;;;6.30;2.50;;;;;;;27.26;81.88;98176.44;5071346;28;20059;-79
2021/08/11 11:32:40;;;;;;;4.05;2.53;;;;;;;26.12;100.00;98176.47;5091647;28;20281;-82
2021/08/11 11:35:24;;;;;;;7.63;2.70;;;;;;;24.77;100.00;98178.69;5044167;28;20089;-81
2021/08/11 11:38:14;;;;;;;6.32;2.80;;;;;;;23.28;100.00;98168.22;5043226;28;20061;-80
2021/08/11 11:40:56;;;;;;;3.97;2.70;;;;;;;22.49;100.00;98179.00;5063937;28;20078;-81
2021/08/11 11:43:33;;;;;;;7.55;3.10;;;;;;;24.34;100.00;98170.72;5098751;28;20477;-81
2021/08/11 11:46:02;;;;;;;7.95;3.20;;;;;;;26.87;100.00;98174.00;5080967;28;20048;-81